METAR / TAF

Die METAR- und TAF-Liste ist aus technischen Gründen (Verfügbarkeit, Update-Zyklen) nicht für ein Meteo-Briefing gedacht. Benutzen Sie stattdessen skybriefing der Skyguide  oder das TAMSI (MeteoSchweiz-eigene Meteo Selfbriefing-Plattform für Firmen aus der Aviatik; Anfragen über das

Kontaktformular

METAR Schweiz

METAR     LSZH 230720Z 06005KT 010V110 CAVOK 15/06 Q1026 NOSIG=
METAR     LSZH 230750Z 03006KT 350V070 9999 FEW032 15/07 Q1026
               NOSIG=
METAR     LSGG 230720Z 05011KT CAVOK 16/07 Q1024 NOSIG=
METAR     LSGG 230750Z 05012KT 020V080 CAVOK 16/07 Q1024 NOSIG=
METAR     LFSB 230800Z 36006KT 330V040 9999 FEW030 15/08 Q1026
               NOSIG=
METAR     LSZB 230720Z VRB02KT CAVOK 15/07 Q1024 NOSIG=
METAR     LSZB 230750Z 04004KT 320V130 CAVOK 16/07 Q1024 NOSIG=
METAR     LSZA 230720Z VRB02KT 9999 FEW045 19/08 Q1022 NOSIG=
METAR     LSZA 230750Z 19004KT 130V220 9999 FEW045 20/11 Q1021
               NOSIG=
METAR     LSZG 230720Z 09009KT CAVOK 15/06 Q1025 NOSIG=
METAR     LSZG 230750Z 08010KT CAVOK 16/06 Q1025 NOSIG=
METAR     LSZR 230720Z AUTO 04004KT 360V080 CAVOK 14/06 Q1025=
METAR     LSZR 230750Z VRB03KT CAVOK 14/06 Q1025 NOSIG RMK C=
METAR     LSGS 230720Z AUTO VRB02KT CAVOK 17/05 Q1023=
METAR     LSGS 230750Z VRB02KT CAVOK 18/06 Q1023=
METAR     LSGC 230720Z AUTO 07008KT 040V120 CAVOK 11/04 Q1025=
METAR     LSGC 230750Z 09005KT 030V140 CAVOK 12/05 Q1025=
METAR     LSZC 230720Z AUTO VRB02KT CAVOK 15/07 Q1025=
METAR     LSZC 230750Z AUTO VRB03KT CAVOK 15/08 Q1025=
METAR     LSZL 230720Z NIL=
METAR     LSZL 230750Z AUTO 00000KT 9999NDV NCD 20/06 Q1021 RMK=
METAR     LSZS 230720Z VRB01KT CAVOK 08/02 Q1024 RMK D=
METAR     LSZS 230750Z VRB02KT CAVOK 08/M01 Q1024 RMK E=
METAR     LSMA 230720Z NIL=
METAR     LSMA 230750Z AUTO 04004KT 360V090 9999NDV NCD 15/08 Q1025
               RMK=
METAR     LSMD 230720Z NIL=
METAR     LSMD 230750Z 06006KT 330V140 CAVOK 16/06 Q1025 RMK BLU=
METAR     LSME 230720Z NIL=
METAR     LSME 230750Z AUTO VRB01KT 9999NDV NCD 15/07 Q1025 RMK=
METAR RRA LSMM 230750Z AUTO 06007KT 340V120 9999NDV NCD 15/06 Q1024
               RMK=
METAR     LSMM 230720Z NIL=
METAR     LSMP 230720Z NIL=
METAR     LSMP 230750Z 05009KT 010V090 CAVOK 15/07 Q1025 RMK BLU=
METAR     LSMS 230720Z AUTO VRB02KT CAVOK 17/05 Q1023=
METAR     LSMS 230750Z VRB02KT CAVOK 18/06 Q1023 RMK BLU+=
Aktualisiert am Samstag, 23. Juni 2018, 10:14 Uhr

TAF Schweiz

TAF     LSZH 230525Z 2306/2412 VRB03KT CAVOK TX22/2315Z TN09/2306Z
             TN09/2404Z TEMPO 2307/2312 03007KT BECMG 2315/2318
             04007KT BECMG 2322/2401 VRB03KT BECMG 2407/2409
             03005KT=
TAF     LSGG 230525Z 2306/2412 04012KT CAVOK TX23/2315Z TN13/2306Z
             TN11/2404Z=
TAF     LFSB 230500Z 2306/2406 VRB02KT CAVOK BECMG 2306/2309
             01010KT=
TAF     LSGS 230525Z 2306/2315 VRB03KT CAVOK BECMG 2310/2312
             25012KT 9999 FEW080=
TAF     LSZA 230525Z 2306/2315 VRB03KT 9999 FEW050 BECMG 2309/2312
             19010KT=
TAF     LSZB 230525Z 2306/2315 VRB03KT CAVOK=
TAF     LSZG 230525Z 2306/2315 VRB01KT CAVOK TEMPO 2311/2315
             07012KT=
TAF     LSZR 230525Z 2306/2315 28005KT CAVOK=
TAF     LSGC 230525Z 2306/2315 04010KT CAVOK=
TAF     LSZS 230525Z 2306/2315 VRB02KT CAVOK TX14/2312Z BECMG
             2309/2312 34010KT PROB40 2312/2315 9999 FEW090=
TAF     LSMA 221625Z 2217/2323 05004KT 9999 FEW050 TEMPO 2217/2323
             CAVOK TEMPO 2308/2318 04012KT=
TAF     LSMD 221625Z 2217/2323 VRB05KT 9999 SCT060 TEMPO 2308/2312
             CAVOK=
TAF     LSME 221625Z 2217/2323 05004KT 9999 FEW050 TEMPO 2217/2323
             CAVOK=
TAF     LSMM 221625Z 2217/2323 03007KT 9999 SCT060 TEMPO 2217/2312
             CAVOK=
TAF     LSMP 230525Z 2306/2412 VRB03KT CAVOK BECMG 2307/2309
             05010KT BECMG 2320/2322 VRB03KT BECMG 2409/2411
             05010KT=
Aktualisiert am Samstag, 23. Juni 2018, 10:03 Uhr